sensor_id;sensor_type;location;lat;lon;timestamp;temperature;humidity
24518;DHT22;12678;51.336;12.406;2023-12-07T00:01:26;3.50;99.90
24518;DHT22;12678;51.336;12.406;2023-12-07T00:03:51;3.60;99.90
24518;DHT22;12678;51.336;12.406;2023-12-07T00:06:17;3.60;99.90
24518;DHT22;12678;51.336;12.406;2023-12-07T00:08:42;3.60;99.90
24518;DHT22;12678;51.336;12.406;2023-12-07T00:11:08;3.60;99.90
24518;DHT22;12678;51.336;12.406;2023-12-07T00:13:33;3.60;99.90
24518;DHT22;12678;51.336;12.406;2023-12-07T00:15:59;3.60;99.90
24518;DHT22;12678;51.336;12.406;2023-12-07T00:18:24;3.60;99.90
24518;DHT22;12678;51.336;12.406;2023-12-07T00:20:50;3.60;99.90
24518;DHT22;12678;51.336;12.406;2023-12-07T00:23:15;3.60;99.90
24518;DHT22;12678;51.336;12.406;2023-12-07T00:25:41;3.50;99.90
24518;DHT22;12678;51.336;12.406;2023-12-07T00:28:07;3.60;99.90
24518;DHT22;12678;51.336;12.406;2023-12-07T00:30:32;3.60;99.90
24518;DHT22;12678;51.336;12.406;2023-12-07T00:32:59;3.60;99.90
24518;DHT22;12678;51.336;12.406;2023-12-07T00:35:24;3.60;99.90
24518;DHT22;12678;51.336;12.406;2023-12-07T00:37:54;3.60;99.90
24518;DHT22;12678;51.336;12.406;2023-12-07T00:40:21;3.60;99.90
24518;DHT22;12678;51.336;12.406;2023-12-07T00:42:47;3.60;99.90
24518;DHT22;12678;51.336;12.406;2023-12-07T00:45:13;3.60;99.90
24518;DHT22;12678;51.336;12.406;2023-12-07T00:47:39;3.60;99.90
24518;DHT22;12678;51.336;12.406;2023-12-07T00:50:05;3.70;99.90
24518;DHT22;12678;51.336;12.406;2023-12-07T00:52:31;3.70;99.90
24518;DHT22;12678;51.336;12.406;2023-12-07T00:54:56;3.70;99.90
24518;DHT22;12678;51.336;12.406;2023-12-07T00:57:22;3.70;99.90
24518;DHT22;12678;51.336;12.406;2023-12-07T00:59:47;3.70;99.90
24518;DHT22;12678;51.336;12.406;2023-12-07T01:02:13;3.70;99.90
24518;DHT22;12678;51.336;12.406;2023-12-07T01:04:38;3.70;99.90
24518;DHT22;12678;51.336;12.406;2023-12-07T01:07:04;3.70;99.90
24518;DHT22;12678;51.336;12.406;2023-12-07T01:09:29;3.70;99.90
24518;DHT22;12678;51.336;12.406;2023-12-07T01:11:55;3.70;99.90
24518;DHT22;12678;51.336;12.406;2023-12-07T01:14:20;3.70;99.90
24518;DHT22;12678;51.336;12.406;2023-12-07T01:16:46;3.70;99.90
24518;DHT22;12678;51.336;12.406;2023-12-07T01:19:12;3.70;99.90
24518;DHT22;12678;51.336;12.406;2023-12-07T01:21:41;3.70;99.90
24518;DHT22;12678;51.336;12.406;2023-12-07T01:24:07;3.70;99.90
24518;DHT22;12678;51.336;12.406;2023-12-07T01:26:33;3.70;99.90
24518;DHT22;12678;51.336;12.406;2023-12-07T01:28:58;3.80;99.90
24518;DHT22;12678;51.336;12.406;2023-12-07T01:31:24;3.80;99.90
24518;DHT22;12678;51.336;12.406;2023-12-07T01:33:49;3.70;99.90
24518;DHT22;12678;51.336;12.406;2023-12-07T01:36:15;3.70;99.90
24518;DHT22;12678;51.336;12.406;2023-12-07T01:38:40;3.70;99.90
24518;DHT22;12678;51.336;12.406;2023-12-07T01:41:06;3.80;99.90
24518;DHT22;12678;51.336;12.406;2023-12-07T01:43:32;3.70;99.90
24518;DHT22;12678;51.336;12.406;2023-12-07T01:45:58;3.70;99.90
24518;DHT22;12678;51.336;12.406;2023-12-07T01:48:24;3.70;99.90
24518;DHT22;12678;51.336;12.406;2023-12-07T01:50:52;3.70;99.90
24518;DHT22;12678;51.336;12.406;2023-12-07T01:53:18;3.70;99.90
24518;DHT22;12678;51.336;12.406;2023-12-07T01:55:46;3.80;99.90
24518;DHT22;12678;51.336;12.406;2023-12-07T01:58:12;3.80;99.90
24518;DHT22;12678;51.336;12.406;2023-12-07T02:00:39;3.80;99.90
24518;DHT22;12678;51.336;12.406;2023-12-07T02:03:05;3.80;99.90
24518;DHT22;12678;51.336;12.406;2023-12-07T02:05:31;3.80;99.90
24518;DHT22;12678;51.336;12.406;2023-12-07T02:07:58;3.80;99.90
24518;DHT22;12678;51.336;12.406;2023-12-07T02:10:24;3.80;99.90
24518;DHT22;12678;51.336;12.406;2023-12-07T02:12:51;3.80;99.90
24518;DHT22;12678;51.336;12.406;2023-12-07T02:15:18;3.80;99.90
24518;DHT22;12678;51.336;12.406;2023-12-07T02:20:31;3.80;99.90
24518;DHT22;12678;51.336;12.406;2023-12-07T02:23:03;3.80;99.90
24518;DHT22;12678;51.336;12.406;2023-12-07T02:25:35;3.80;99.90
24518;DHT22;12678;51.336;12.406;2023-12-07T02:28:02;3.80;99.90
24518;DHT22;12678;51.336;12.406;2023-12-07T02:30:27;3.70;99.90
24518;DHT22;12678;51.336;12.406;2023-12-07T02:32:53;3.70;99.90
24518;DHT22;12678;51.336;12.406;2023-12-07T02:35:18;3.70;99.90
24518;DHT22;12678;51.336;12.406;2023-12-07T02:37:47;3.80;99.90
24518;DHT22;12678;51.336;12.406;2023-12-07T02:40:21;3.80;99.90
24518;DHT22;12678;51.336;12.406;2023-12-07T02:42:47;3.80;99.90
24518;DHT22;12678;51.336;12.406;2023-12-07T02:45:13;3.80;99.90
24518;DHT22;12678;51.336;12.406;2023-12-07T02:47:39;3.80;99.90
24518;DHT22;12678;51.336;12.406;2023-12-07T02:50:07;3.80;99.90
24518;DHT22;12678;51.336;12.406;2023-12-07T02:52:34;3.80;99.90
24518;DHT22;12678;51.336;12.406;2023-12-07T02:54:59;3.70;99.90
24518;DHT22;12678;51.336;12.406;2023-12-07T02:57:25;3.70;99.90
24518;DHT22;12678;51.336;12.406;2023-12-07T02:59:51;3.80;99.90
24518;DHT22;12678;51.336;12.406;2023-12-07T03:02:16;3.80;99.90
24518;DHT22;12678;51.336;12.406;2023-12-07T03:04:42;3.80;99.90
24518;DHT22;12678;51.336;12.406;2023-12-07T03:07:07;3.80;99.90
24518;DHT22;12678;51.336;12.406;2023-12-07T03:09:33;3.80;99.90
24518;DHT22;12678;51.336;12.406;2023-12-07T03:11:58;3.80;99.90
24518;DHT22;12678;51.336;12.406;2023-12-07T03:14:24;3.80;99.90
24518;DHT22;12678;51.336;12.406;2023-12-07T03:16:49;3.80;99.90
24518;DHT22;12678;51.336;12.406;2023-12-07T03:19:15;3.90;99.90
24518;DHT22;12678;51.336;12.406;2023-12-07T03:21:41;3.80;99.90
24518;DHT22;12678;51.336;12.406;2023-12-07T03:24:08;3.90;99.90
24518;DHT22;12678;51.336;12.406;2023-12-07T03:26:34;3.80;99.90
24518;DHT22;12678;51.336;12.406;2023-12-07T03:29:00;3.80;99.90
24518;DHT22;12678;51.336;12.406;2023-12-07T03:31:25;3.80;99.90
24518;DHT22;12678;51.336;12.406;2023-12-07T03:33:51;3.80;99.90
24518;DHT22;12678;51.336;12.406;2023-12-07T03:36:16;3.80;99.90
24518;DHT22;12678;51.336;12.406;2023-12-07T03:38:42;3.80;99.90
24518;DHT22;12678;51.336;12.406;2023-12-07T03:41:08;3.80;99.90
24518;DHT22;12678;51.336;12.406;2023-12-07T03:43:33;3.80;99.90
24518;DHT22;12678;51.336;12.406;2023-12-07T03:45:59;3.80;99.90
24518;DHT22;12678;51.336;12.406;2023-12-07T03:48:25;3.80;99.90
24518;DHT22;12678;51.336;12.406;2023-12-07T03:50:50;3.80;99.90
24518;DHT22;12678;51.336;12.406;2023-12-07T03:53:16;3.80;99.90
24518;DHT22;12678;51.336;12.406;2023-12-07T03:55:42;3.80;99.90
24518;DHT22;12678;51.336;12.406;2023-12-07T03:58:08;3.80;99.90
24518;DHT22;12678;51.336;12.406;2023-12-07T04:00:33;3.80;99.90
24518;DHT22;12678;51.336;12.406;2023-12-07T04:02:59;3.80;99.90
24518;DHT22;12678;51.336;12.406;2023-12-07T04:05:24;3.80;99.90
24518;DHT22;12678;51.336;12.406;2023-12-07T04:07:50;3.80;99.90
24518;DHT22;12678;51.336;12.406;2023-12-07T04:10:15;3.80;99.90
24518;DHT22;12678;51.336;12.406;2023-12-07T04:12:41;3.80;99.90
24518;DHT22;12678;51.336;12.406;2023-12-07T04:15:07;3.80;99.90
24518;DHT22;12678;51.336;12.406;2023-12-07T04:17:33;3.80;99.90
24518;DHT22;12678;51.336;12.406;2023-12-07T04:19:58;3.80;99.90
24518;DHT22;12678;51.336;12.406;2023-12-07T04:22:24;3.70;99.90
24518;DHT22;12678;51.336;12.406;2023-12-07T04:24:49;3.70;99.90
24518;DHT22;12678;51.336;12.406;2023-12-07T04:27:15;3.80;99.90
24518;DHT22;12678;51.336;12.406;2023-12-07T04:29:41;3.80;99.90
24518;DHT22;12678;51.336;12.406;2023-12-07T04:32:07;3.80;99.90
24518;DHT22;12678;51.336;12.406;2023-12-07T04:34:33;3.80;99.90
24518;DHT22;12678;51.336;12.406;2023-12-07T04:36:58;3.80;99.90
24518;DHT22;12678;51.336;12.406;2023-12-07T04:39:24;3.90;99.90
24518;DHT22;12678;51.336;12.406;2023-12-07T04:41:49;3.90;99.90
24518;DHT22;12678;51.336;12.406;2023-12-07T04:44:15;3.80;99.90
24518;DHT22;12678;51.336;12.406;2023-12-07T04:46:42;3.80;99.90
24518;DHT22;12678;51.336;12.406;2023-12-07T04:49:08;3.80;99.90
24518;DHT22;12678;51.336;12.406;2023-12-07T04:51:33;3.80;99.90
24518;DHT22;12678;51.336;12.406;2023-12-07T04:53:59;3.80;99.90
24518;DHT22;12678;51.336;12.406;2023-12-07T04:56:25;3.80;99.90
24518;DHT22;12678;51.336;12.406;2023-12-07T04:58:50;3.80;99.90
24518;DHT22;12678;51.336;12.406;2023-12-07T05:01:16;3.80;99.90
24518;DHT22;12678;51.336;12.406;2023-12-07T05:03:41;3.80;99.90
24518;DHT22;12678;51.336;12.406;2023-12-07T05:06:07;3.90;99.90
24518;DHT22;12678;51.336;12.406;2023-12-07T05:08:33;3.90;99.90
24518;DHT22;12678;51.336;12.406;2023-12-07T05:10:59;3.80;99.90
24518;DHT22;12678;51.336;12.406;2023-12-07T05:13:24;3.80;99.90
24518;DHT22;12678;51.336;12.406;2023-12-07T05:15:50;3.80;99.90
24518;DHT22;12678;51.336;12.406;2023-12-07T05:18:15;3.80;99.90
24518;DHT22;12678;51.336;12.406;2023-12-07T05:20:41;3.70;99.90
24518;DHT22;12678;51.336;12.406;2023-12-07T05:23:06;3.70;99.90
24518;DHT22;12678;51.336;12.406;2023-12-07T05:25:32;3.70;99.90
24518;DHT22;12678;51.336;12.406;2023-12-07T05:27:58;3.70;99.90
24518;DHT22;12678;51.336;12.406;2023-12-07T05:30:24;3.70;99.90
24518;DHT22;12678;51.336;12.406;2023-12-07T05:32:49;3.70;99.90
24518;DHT22;12678;51.336;12.406;2023-12-07T05:35:16;3.70;99.90
24518;DHT22;12678;51.336;12.406;2023-12-07T05:37:41;3.70;99.90
24518;DHT22;12678;51.336;12.406;2023-12-07T05:40:07;3.80;99.90
24518;DHT22;12678;51.336;12.406;2023-12-07T05:42:34;3.80;99.90
24518;DHT22;12678;51.336;12.406;2023-12-07T05:45:00;3.70;99.90
24518;DHT22;12678;51.336;12.406;2023-12-07T05:47:26;3.70;99.90
24518;DHT22;12678;51.336;12.406;2023-12-07T05:49:52;3.70;99.90
24518;DHT22;12678;51.336;12.406;2023-12-07T05:52:17;3.70;99.90
24518;DHT22;12678;51.336;12.406;2023-12-07T05:54:43;3.70;99.90
24518;DHT22;12678;51.336;12.406;2023-12-07T05:57:12;3.70;99.90
24518;DHT22;12678;51.336;12.406;2023-12-07T05:59:38;3.70;99.90
24518;DHT22;12678;51.336;12.406;2023-12-07T06:02:04;3.70;99.90
24518;DHT22;12678;51.336;12.406;2023-12-07T06:04:30;3.70;99.90
24518;DHT22;12678;51.336;12.406;2023-12-07T06:06:56;3.70;99.90
24518;DHT22;12678;51.336;12.406;2023-12-07T06:09:21;3.70;99.90
24518;DHT22;12678;51.336;12.406;2023-12-07T06:11:48;3.70;99.90
24518;DHT22;12678;51.336;12.406;2023-12-07T06:14:13;3.70;99.90
24518;DHT22;12678;51.336;12.406;2023-12-07T06:16:39;3.70;99.90
24518;DHT22;12678;51.336;12.406;2023-12-07T06:19:04;3.70;99.90
24518;DHT22;12678;51.336;12.406;2023-12-07T06:21:30;3.70;99.90
24518;DHT22;12678;51.336;12.406;2023-12-07T06:23:56;3.70;99.90
24518;DHT22;12678;51.336;12.406;2023-12-07T06:26:22;3.80;99.90
24518;DHT22;12678;51.336;12.406;2023-12-07T06:28:47;3.80;99.90
24518;DHT22;12678;51.336;12.406;2023-12-07T06:31:13;3.80;99.90
24518;DHT22;12678;51.336;12.406;2023-12-07T06:33:41;3.80;99.90
24518;DHT22;12678;51.336;12.406;2023-12-07T06:36:06;3.80;99.90
24518;DHT22;12678;51.336;12.406;2023-12-07T06:38:32;3.80;99.90
24518;DHT22;12678;51.336;12.406;2023-12-07T06:40:58;3.70;99.90
24518;DHT22;12678;51.336;12.406;2023-12-07T06:43:23;3.70;99.90
24518;DHT22;12678;51.336;12.406;2023-12-07T06:45:49;3.70;99.90
24518;DHT22;12678;51.336;12.406;2023-12-07T06:48:14;3.80;99.90
24518;DHT22;12678;51.336;12.406;2023-12-07T06:50:40;3.70;99.90
24518;DHT22;12678;51.336;12.406;2023-12-07T06:53:05;3.80;99.90
24518;DHT22;12678;51.336;12.406;2023-12-07T06:55:31;3.80;99.90
24518;DHT22;12678;51.336;12.406;2023-12-07T06:57:57;3.70;99.90
24518;DHT22;12678;51.336;12.406;2023-12-07T07:00:22;3.70;99.90
24518;DHT22;12678;51.336;12.406;2023-12-07T07:02:50;3.80;99.90
24518;DHT22;12678;51.336;12.406;2023-12-07T07:05:15;3.80;99.90
24518;DHT22;12678;51.336;12.406;2023-12-07T07:07:41;3.80;99.90
24518;DHT22;12678;51.336;12.406;2023-12-07T07:10:07;3.80;99.90
24518;DHT22;12678;51.336;12.406;2023-12-07T07:12:35;3.80;99.90
24518;DHT22;12678;51.336;12.406;2023-12-07T07:15:01;3.80;99.90
24518;DHT22;12678;51.336;12.406;2023-12-07T07:17:26;3.90;99.90
24518;DHT22;12678;51.336;12.406;2023-12-07T07:19:54;3.90;99.90
24518;DHT22;12678;51.336;12.406;2023-12-07T07:22:20;4.00;99.90
24518;DHT22;12678;51.336;12.406;2023-12-07T07:24:47;4.00;99.90
24518;DHT22;12678;51.336;12.406;2023-12-07T07:27:12;4.00;99.90
24518;DHT22;12678;51.336;12.406;2023-12-07T07:29:38;4.00;99.90
24518;DHT22;12678;51.336;12.406;2023-12-07T07:32:04;4.00;99.90
24518;DHT22;12678;51.336;12.406;2023-12-07T07:34:30;3.90;99.90
24518;DHT22;12678;51.336;12.406;2023-12-07T07:36:55;3.90;99.90
24518;DHT22;12678;51.336;12.406;2023-12-07T07:39:21;3.90;99.90
24518;DHT22;12678;51.336;12.406;2023-12-07T07:41:46;4.00;99.90
24518;DHT22;12678;51.336;12.406;2023-12-07T07:44:12;3.90;99.90
24518;DHT22;12678;51.336;12.406;2023-12-07T07:46:37;3.90;99.90
24518;DHT22;12678;51.336;12.406;2023-12-07T07:49:03;3.90;99.90
24518;DHT22;12678;51.336;12.406;2023-12-07T07:51:32;3.80;99.90
24518;DHT22;12678;51.336;12.406;2023-12-07T07:53:59;3.90;99.90
24518;DHT22;12678;51.336;12.406;2023-12-07T07:56:24;3.90;99.90
24518;DHT22;12678;51.336;12.406;2023-12-07T07:58:50;3.90;99.90
24518;DHT22;12678;51.336;12.406;2023-12-07T08:01:15;4.00;99.90
24518;DHT22;12678;51.336;12.406;2023-12-07T08:03:41;3.90;99.90
24518;DHT22;12678;51.336;12.406;2023-12-07T08:06:07;3.90;99.90
24518;DHT22;12678;51.336;12.406;2023-12-07T08:08:34;3.90;99.90
24518;DHT22;12678;51.336;12.406;2023-12-07T08:11:00;3.90;99.90
24518;DHT22;12678;51.336;12.406;2023-12-07T08:13:26;4.00;99.90
24518;DHT22;12678;51.336;12.406;2023-12-07T08:15:53;3.90;99.90
24518;DHT22;12678;51.336;12.406;2023-12-07T08:18:18;3.90;99.90
24518;DHT22;12678;51.336;12.406;2023-12-07T08:20:44;3.90;99.90
24518;DHT22;12678;51.336;12.406;2023-12-07T08:23:09;3.90;99.90
24518;DHT22;12678;51.336;12.406;2023-12-07T08:25:38;4.00;99.90
24518;DHT22;12678;51.336;12.406;2023-12-07T08:28:03;4.00;99.90
24518;DHT22;12678;51.336;12.406;2023-12-07T08:30:29;4.00;99.90
24518;DHT22;12678;51.336;12.406;2023-12-07T08:32:55;4.00;99.90
24518;DHT22;12678;51.336;12.406;2023-12-07T08:35:20;4.00;99.90
24518;DHT22;12678;51.336;12.406;2023-12-07T08:37:47;4.00;99.90
24518;DHT22;12678;51.336;12.406;2023-12-07T08:40:13;4.10;99.90
24518;DHT22;12678;51.336;12.406;2023-12-07T08:42:40;4.10;99.90
24518;DHT22;12678;51.336;12.406;2023-12-07T08:45:06;4.10;99.90
24518;DHT22;12678;51.336;12.406;2023-12-07T08:47:33;4.10;99.90
24518;DHT22;12678;51.336;12.406;2023-12-07T08:49:58;4.20;99.90
24518;DHT22;12678;51.336;12.406;2023-12-07T08:52:24;4.20;99.90
24518;DHT22;12678;51.336;12.406;2023-12-07T08:54:49;4.20;99.90
24518;DHT22;12678;51.336;12.406;2023-12-07T08:57:17;4.20;99.90
24518;DHT22;12678;51.336;12.406;2023-12-07T08:59:42;4.30;99.90
24518;DHT22;12678;51.336;12.406;2023-12-07T09:02:08;4.20;99.90
24518;DHT22;12678;51.336;12.406;2023-12-07T09:04:33;4.20;99.90
24518;DHT22;12678;51.336;12.406;2023-12-07T09:06:59;4.20;99.90
24518;DHT22;12678;51.336;12.406;2023-12-07T09:09:24;4.20;99.90
24518;DHT22;12678;51.336;12.406;2023-12-07T09:11:51;4.20;99.90
24518;DHT22;12678;51.336;12.406;2023-12-07T09:14:16;4.20;99.90
24518;DHT22;12678;51.336;12.406;2023-12-07T09:16:45;4.20;99.90
24518;DHT22;12678;51.336;12.406;2023-12-07T09:19:12;4.20;99.90
24518;DHT22;12678;51.336;12.406;2023-12-07T09:21:41;4.20;99.90
24518;DHT22;12678;51.336;12.406;2023-12-07T09:24:07;4.20;99.90
24518;DHT22;12678;51.336;12.406;2023-12-07T09:26:33;4.20;99.90
24518;DHT22;12678;51.336;12.406;2023-12-07T09:28:58;4.20;99.90
24518;DHT22;12678;51.336;12.406;2023-12-07T09:31:24;4.20;99.90
24518;DHT22;12678;51.336;12.406;2023-12-07T09:33:49;4.20;99.90
24518;DHT22;12678;51.336;12.406;2023-12-07T09:36:18;4.20;99.90
24518;DHT22;12678;51.336;12.406;2023-12-07T09:38:44;4.20;99.90
24518;DHT22;12678;51.336;12.406;2023-12-07T09:41:10;4.20;99.90
24518;DHT22;12678;51.336;12.406;2023-12-07T09:43:36;4.20;99.90
24518;DHT22;12678;51.336;12.406;2023-12-07T09:46:02;4.30;99.90
24518;DHT22;12678;51.336;12.406;2023-12-07T09:48:29;4.30;99.90
24518;DHT22;12678;51.336;12.406;2023-12-07T09:50:55;4.30;99.90
24518;DHT22;12678;51.336;12.406;2023-12-07T09:53:22;4.30;99.90
24518;DHT22;12678;51.336;12.406;2023-12-07T09:55:48;4.30;99.90
24518;DHT22;12678;51.336;12.406;2023-12-07T09:58:14;4.30;99.90
24518;DHT22;12678;51.336;12.406;2023-12-07T10:00:39;4.30;99.90
24518;DHT22;12678;51.336;12.406;2023-12-07T10:03:05;4.30;99.90
24518;DHT22;12678;51.336;12.406;2023-12-07T10:05:34;4.40;99.90
24518;DHT22;12678;51.336;12.406;2023-12-07T10:08:26;4.40;99.90
24518;DHT22;12678;51.336;12.406;2023-12-07T10:11:08;4.40;99.90
24518;DHT22;12678;51.336;12.406;2023-12-07T10:13:35;4.40;99.90
24518;DHT22;12678;51.336;12.406;2023-12-07T10:16:11;4.40;99.90
24518;DHT22;12678;51.336;12.406;2023-12-07T10:18:38;4.40;99.90
24518;DHT22;12678;51.336;12.406;2023-12-07T10:21:09;4.40;99.90
24518;DHT22;12678;51.336;12.406;2023-12-07T10:23:38;4.40;99.90
24518;DHT22;12678;51.336;12.406;2023-12-07T10:26:10;4.50;99.90
24518;DHT22;12678;51.336;12.406;2023-12-07T10:28:36;4.50;99.90
24518;DHT22;12678;51.336;12.406;2023-12-07T10:31:02;4.50;99.90
24518;DHT22;12678;51.336;12.406;2023-12-07T10:33:28;4.60;99.90
24518;DHT22;12678;51.336;12.406;2023-12-07T10:35:54;4.70;99.90
24518;DHT22;12678;51.336;12.406;2023-12-07T10:38:20;4.70;99.90
24518;DHT22;12678;51.336;12.406;2023-12-07T10:40:51;4.70;99.90
24518;DHT22;12678;51.336;12.406;2023-12-07T10:43:27;4.70;99.90
24518;DHT22;12678;51.336;12.406;2023-12-07T10:45:53;4.80;99.90
24518;DHT22;12678;51.336;12.406;2023-12-07T10:48:19;4.80;99.90
24518;DHT22;12678;51.336;12.406;2023-12-07T10:50:46;4.80;99.90
24518;DHT22;12678;51.336;12.406;2023-12-07T10:53:21;4.80;99.90
24518;DHT22;12678;51.336;12.406;2023-12-07T10:55:56;4.80;99.90
24518;DHT22;12678;51.336;12.406;2023-12-07T10:58:23;4.80;99.90
24518;DHT22;12678;51.336;12.406;2023-12-07T11:00:55;4.80;99.90
24518;DHT22;12678;51.336;12.406;2023-12-07T11:03:22;4.90;99.90
24518;DHT22;12678;51.336;12.406;2023-12-07T11:05:49;4.90;99.90
24518;DHT22;12678;51.336;12.406;2023-12-07T11:11:10;4.90;99.90
24518;DHT22;12678;51.336;12.406;2023-12-07T11:13:38;4.90;99.90
24518;DHT22;12678;51.336;12.406;2023-12-07T11:16:05;4.90;99.90
24518;DHT22;12678;51.336;12.406;2023-12-07T11:18:30;4.80;99.90
24518;DHT22;12678;51.336;12.406;2023-12-07T11:20:56;4.90;99.90
24518;DHT22;12678;51.336;12.406;2023-12-07T11:23:22;4.90;99.90
24518;DHT22;12678;51.336;12.406;2023-12-07T11:25:49;4.80;99.90
24518;DHT22;12678;51.336;12.406;2023-12-07T11:28:16;4.90;99.90
24518;DHT22;12678;51.336;12.406;2023-12-07T11:30:44;4.90;99.90
24518;DHT22;12678;51.336;12.406;2023-12-07T11:33:10;4.90;99.90
24518;DHT22;12678;51.336;12.406;2023-12-07T11:38:27;4.90;99.90
24518;DHT22;12678;51.336;12.406;2023-12-07T11:40:54;4.90;99.90
24518;DHT22;12678;51.336;12.406;2023-12-07T11:45:58;5.00;99.90
24518;DHT22;12678;51.336;12.406;2023-12-07T11:48:23;5.00;99.90
24518;DHT22;12678;51.336;12.406;2023-12-07T11:51:00;4.90;99.90
24518;DHT22;12678;51.336;12.406;2023-12-07T11:53:31;5.00;99.90
24518;DHT22;12678;51.336;12.406;2023-12-07T11:55:58;5.00;99.90
24518;DHT22;12678;51.336;12.406;2023-12-07T11:58:27;5.10;99.90
24518;DHT22;12678;51.336;12.406;2023-12-07T12:00:53;5.00;99.90
24518;DHT22;12678;51.336;12.406;2023-12-07T12:03:20;5.00;99.90
24518;DHT22;12678;51.336;12.406;2023-12-07T12:05:46;5.10;99.90
24518;DHT22;12678;51.336;12.406;2023-12-07T12:08:12;5.10;99.90
24518;DHT22;12678;51.336;12.406;2023-12-07T12:10:41;5.10;99.90
24518;DHT22;12678;51.336;12.406;2023-12-07T12:13:08;5.10;99.90
24518;DHT22;12678;51.336;12.406;2023-12-07T12:15:34;5.20;99.90
24518;DHT22;12678;51.336;12.406;2023-12-07T12:18:00;5.20;99.90
24518;DHT22;12678;51.336;12.406;2023-12-07T12:20:27;5.20;99.90
24518;DHT22;12678;51.336;12.406;2023-12-07T12:22:53;5.20;99.90
24518;DHT22;12678;51.336;12.406;2023-12-07T12:25:38;5.20;99.90
24518;DHT22;12678;51.336;12.406;2023-12-07T12:28:07;5.20;99.90
24518;DHT22;12678;51.336;12.406;2023-12-07T12:30:33;5.20;99.90
24518;DHT22;12678;51.336;12.406;2023-12-07T12:32:59;5.20;99.90
24518;DHT22;12678;51.336;12.406;2023-12-07T12:35:25;5.20;99.90
24518;DHT22;12678;51.336;12.406;2023-12-07T12:37:51;5.10;99.90
24518;DHT22;12678;51.336;12.406;2023-12-07T12:40:18;5.10;99.90
24518;DHT22;12678;51.336;12.406;2023-12-07T12:42:45;5.20;99.90
24518;DHT22;12678;51.336;12.406;2023-12-07T12:45:12;5.20;99.90
24518;DHT22;12678;51.336;12.406;2023-12-07T12:47:39;5.20;99.90
24518;DHT22;12678;51.336;12.406;2023-12-07T12:50:05;5.20;99.90
24518;DHT22;12678;51.336;12.406;2023-12-07T12:52:32;5.20;99.90
24518;DHT22;12678;51.336;12.406;2023-12-07T12:55:01;5.20;99.90
24518;DHT22;12678;51.336;12.406;2023-12-07T12:57:27;5.20;99.90
24518;DHT22;12678;51.336;12.406;2023-12-07T12:59:54;5.20;99.90
24518;DHT22;12678;51.336;12.406;2023-12-07T13:02:20;5.20;99.90
24518;DHT22;12678;51.336;12.406;2023-12-07T13:04:46;5.20;99.90
24518;DHT22;12678;51.336;12.406;2023-12-07T13:07:12;5.20;99.90
24518;DHT22;12678;51.336;12.406;2023-12-07T13:09:39;5.20;99.90
24518;DHT22;12678;51.336;12.406;2023-12-07T13:12:05;5.20;99.90
24518;DHT22;12678;51.336;12.406;2023-12-07T13:14:30;5.20;99.90
24518;DHT22;12678;51.336;12.406;2023-12-07T13:16:56;5.30;99.90
24518;DHT22;12678;51.336;12.406;2023-12-07T13:19:21;5.20;99.90
24518;DHT22;12678;51.336;12.406;2023-12-07T13:21:47;5.30;99.90
24518;DHT22;12678;51.336;12.406;2023-12-07T13:24:13;5.30;99.90
24518;DHT22;12678;51.336;12.406;2023-12-07T13:26:38;5.30;99.90
24518;DHT22;12678;51.336;12.406;2023-12-07T13:29:04;5.30;99.90
24518;DHT22;12678;51.336;12.406;2023-12-07T13:31:30;5.30;99.90
24518;DHT22;12678;51.336;12.406;2023-12-07T13:33:56;5.30;99.90
24518;DHT22;12678;51.336;12.406;2023-12-07T13:36:22;5.20;99.90
24518;DHT22;12678;51.336;12.406;2023-12-07T13:38:51;5.30;99.90
24518;DHT22;12678;51.336;12.406;2023-12-07T13:41:16;5.30;99.90
24518;DHT22;12678;51.336;12.406;2023-12-07T13:43:42;5.30;99.90
24518;DHT22;12678;51.336;12.406;2023-12-07T13:46:08;5.30;99.90
24518;DHT22;12678;51.336;12.406;2023-12-07T13:48:34;5.30;99.90
24518;DHT22;12678;51.336;12.406;2023-12-07T13:51:00;5.30;99.90
24518;DHT22;12678;51.336;12.406;2023-12-07T13:53:25;5.30;99.90
24518;DHT22;12678;51.336;12.406;2023-12-07T13:55:51;5.30;99.90
24518;DHT22;12678;51.336;12.406;2023-12-07T13:58:17;5.30;99.90
24518;DHT22;12678;51.336;12.406;2023-12-07T14:00:43;5.40;99.90
24518;DHT22;12678;51.336;12.406;2023-12-07T14:03:11;5.40;99.90
24518;DHT22;12678;51.336;12.406;2023-12-07T14:05:37;5.30;99.90
24518;DHT22;12678;51.336;12.406;2023-12-07T14:08:03;5.30;99.90
24518;DHT22;12678;51.336;12.406;2023-12-07T14:10:28;5.30;99.90
24518;DHT22;12678;51.336;12.406;2023-12-07T14:12:54;5.30;99.90
24518;DHT22;12678;51.336;12.406;2023-12-07T14:15:20;5.30;99.90
24518;DHT22;12678;51.336;12.406;2023-12-07T14:17:45;5.40;99.90
24518;DHT22;12678;51.336;12.406;2023-12-07T14:20:11;5.40;99.90
24518;DHT22;12678;51.336;12.406;2023-12-07T14:22:37;5.30;99.90
24518;DHT22;12678;51.336;12.406;2023-12-07T14:25:04;5.30;99.90
24518;DHT22;12678;51.336;12.406;2023-12-07T14:27:29;5.30;99.90
24518;DHT22;12678;51.336;12.406;2023-12-07T14:29:55;5.30;99.90
24518;DHT22;12678;51.336;12.406;2023-12-07T14:32:21;5.30;99.90
24518;DHT22;12678;51.336;12.406;2023-12-07T14:34:47;5.30;99.90
24518;DHT22;12678;51.336;12.406;2023-12-07T14:37:12;5.30;99.90
24518;DHT22;12678;51.336;12.406;2023-12-07T14:39:39;5.30;99.90
24518;DHT22;12678;51.336;12.406;2023-12-07T14:42:06;5.20;99.90
24518;DHT22;12678;51.336;12.406;2023-12-07T14:44:32;5.20;99.90
24518;DHT22;12678;51.336;12.406;2023-12-07T14:46:58;5.20;99.90
24518;DHT22;12678;51.336;12.406;2023-12-07T14:49:24;5.10;99.90
24518;DHT22;12678;51.336;12.406;2023-12-07T14:51:50;5.10;99.90
24518;DHT22;12678;51.336;12.406;2023-12-07T14:54:17;5.10;99.90
24518;DHT22;12678;51.336;12.406;2023-12-07T14:56:43;5.10;99.90
24518;DHT22;12678;51.336;12.406;2023-12-07T14:59:12;5.10;99.90
24518;DHT22;12678;51.336;12.406;2023-12-07T15:01:38;5.10;99.90
24518;DHT22;12678;51.336;12.406;2023-12-07T15:04:05;5.00;99.90
24518;DHT22;12678;51.336;12.406;2023-12-07T15:06:31;5.00;99.90
24518;DHT22;12678;51.336;12.406;2023-12-07T15:08:57;5.00;99.90
24518;DHT22;12678;51.336;12.406;2023-12-07T15:11:23;4.90;99.90
24518;DHT22;12678;51.336;12.406;2023-12-07T15:13:49;5.00;99.90
24518;DHT22;12678;51.336;12.406;2023-12-07T15:16:15;4.90;99.90
24518;DHT22;12678;51.336;12.406;2023-12-07T15:18:40;4.90;99.90
24518;DHT22;12678;51.336;12.406;2023-12-07T15:21:11;4.90;99.90
24518;DHT22;12678;51.336;12.406;2023-12-07T15:23:38;4.90;99.90
24518;DHT22;12678;51.336;12.406;2023-12-07T15:26:04;4.90;99.90
24518;DHT22;12678;51.336;12.406;2023-12-07T15:28:30;4.90;99.90
24518;DHT22;12678;51.336;12.406;2023-12-07T15:30:55;4.80;99.90
24518;DHT22;12678;51.336;12.406;2023-12-07T15:33:21;4.80;99.90
24518;DHT22;12678;51.336;12.406;2023-12-07T15:35:46;4.80;99.90